Glover River (Oklahoma), Glover (07337900)

StateOklahomaCurrentGood (640 cfs)
RiverGlover RiverFlood - The river is flooding. Obstacles can be treacherous or deadly. The river should be avoided at this stage for casual trips and definitely for the inexperienced. Trips should be attempted only with protective gear and equipment.Flood(none)
Updated2019-10-14 2:30 (58 minutes ago)High - The river is high and potentially dangerous, especially for the young and / or inexperienced. Normal stream obstacles are sometimes difficult to navigate. Extended distances can be attempted, but canoe travel may not be advisable.High(none)
Discharge640 cfs (median: 11 cfs)Good - Conditions are ideal for a canoe or kayak. Boats typically will drag on fewer than one-quarter of riffles, if at all, and portages are unnecessary or rare. Normal float lengths can be attempted without a problem.Good100
Height5.16 feetLow - River is low but can still be floated. Some riffles are okay but most come with significant dragging and might need a portage. Float lengths should be reduced to accommodate low flow, dragging, and portages.Low(none)
TrendFalling (falling over 24 hours)Poor - River is too low to float comfortably. Most or all riffles will drag or must be portaged and some obstacles (such as slick shelf rock) cause undue problems. Avoid the river at this stage for casual paddling trips.Poor(none)
USGSExternal icon USGS Site for Glover (07337900)LocationExternal icon Google Maps

Trending Data

Plot Image
ObservationHeightDischargeMaximum
Discharge
Minimum
Discharge
Mean
Discharge
P05P10P20P25P50
(Median)
P75P80P90P95
2019-10-14 02:30 5.16 640 2790 (2010) 0 (1979) 198 0 1 2 2 11 68 156 970 1210
2019-10-14 01:30 5.17 648 2790 (2010) 0 (1979) 198 0 1 2 2 11 68 156 970 1210
2019-10-14 00:30 5.19 664 2790 (2010) 0 (1979) 198 0 1 2 2 11 68 156 970 1210
2019-10-13 23:30 5.21 680 3690 (1998) 0 (1979) 273 0 0 2 2 12 79 178 900 2410
2019-10-13 22:30 5.22 688 3690 (1998) 0 (1979) 273 0 0 2 2 12 79 178 900 2410
2019-10-13 21:30 5.24 705 3690 (1998) 0 (1979) 273 0 0 2 2 12 79 178 900 2410
2019-10-13 20:30 5.25 713 3690 (1998) 0 (1979) 273 0 0 2 2 12 79 178 900 2410
2019-10-13 19:30 5.27 730 3690 (1998) 0 (1979) 273 0 0 2 2 12 79 178 900 2410
2019-10-13 18:30 5.29 748 3690 (1998) 0 (1979) 273 0 0 2 2 12 79 178 900 2410
2019-10-13 17:30 5.32 774 3690 (1998) 0 (1979) 273 0 0 2 2 12 79 178 900 2410
2019-10-13 16:30 5.33 783 3690 (1998) 0 (1979) 273 0 0 2 2 12 79 178 900 2410
2019-10-13 15:30 5.35 801 3690 (1998) 0 (1979) 273 0 0 2 2 12 79 178 900 2410
2019-10-13 14:30 5.37 819 3690 (1998) 0 (1979) 273 0 0 2 2 12 79 178 900 2410
2019-10-13 13:30 5.39 837 3690 (1998) 0 (1979) 273 0 0 2 2 12 79 178 900 2410
2019-10-13 12:30 5.42 864 3690 (1998) 0 (1979) 273 0 0 2 2 12 79 178 900 2410
2019-10-13 11:30 5.45 891 3690 (1998) 0 (1979) 273 0 0 2 2 12 79 178 900 2410
2019-10-13 10:30 5.47 910 3690 (1998) 0 (1979) 273 0 0 2 2 12 79 178 900 2410
2019-10-13 09:30 5.49 929 3690 (1998) 0 (1979) 273 0 0 2 2 12 79 178 900 2410
2019-10-13 08:30 5.51 948 3690 (1998) 0 (1979) 273 0 0 2 2 12 79 178 900 2410
2019-10-13 07:30 5.54 977 3690 (1998) 0 (1979) 273 0 0 2 2 12 79 178 900 2410
2019-10-13 06:30 5.56 997 3690 (1998) 0 (1979) 273 0 0 2 2 12 79 178 900 2410
2019-10-13 05:30 5.59 1030 3690 (1998) 0 (1979) 273 0 0 2 2 12 79 178 900 2410
2019-10-13 04:30 5.62 1060 3690 (1998) 0 (1979) 273 0 0 2 2 12 79 178 900 2410
2019-10-13 03:30 5.64 1080 3690 (1998) 0 (1979) 273 0 0 2 2 12 79 178 900 2410
2019-10-13 02:30 5.67 1110 3690 (1998) 0 (1979) 273 0 0 2 2 12 79 178 900 2410
2019-10-13 01:30 5.70 1140 3690 (1998) 0 (1979) 273 0 0 2 2 12 79 178 900 2410
2019-10-13 00:30 5.73 1180 3690 (1998) 0 (1979) 273 0 0 2 2 12 79 178 900 2410
2019-10-12 23:30 5.76 1210 2400 (1971) 0 (1979) 117 0 0 1 2 14 85 105 207 698
2019-10-12 22:30 5.79 1240 2400 (1971) 0 (1979) 117 0 0 1 2 14 85 105 207 698
2019-10-12 21:30 5.82 1280 2400 (1971) 0 (1979) 117 0 0 1 2 14 85 105 207 698
2019-10-12 20:30 5.86 1320 2400 (1971) 0 (1979) 117 0 0 1 2 14 85 105 207 698
2019-10-12 19:30 5.89 1360 2400 (1971) 0 (1979) 117 0 0 1 2 14 85 105 207 698
2019-10-12 18:30 5.92 1390 2400 (1971) 0 (1979) 117 0 0 1 2 14 85 105 207 698
2019-10-12 17:30 5.97 1460 2400 (1971) 0 (1979) 117 0 0 1 2 14 85 105 207 698
2019-10-12 16:30 6.01 1510 2400 (1971) 0 (1979) 117 0 0 1 2 14 85 105 207 698
2019-10-12 15:30 6.06 1570 2400 (1971) 0 (1979) 117 0 0 1 2 14 85 105 207 698
2019-10-12 14:30 6.11 1630 2400 (1971) 0 (1979) 117 0 0 1 2 14 85 105 207 698
2019-10-12 13:30 6.16 1700 2400 (1971) 0 (1979) 117 0 0 1 2 14 85 105 207 698
2019-10-12 12:30 6.21 1760 2400 (1971) 0 (1979) 117 0 0 1 2 14 85 105 207 698
2019-10-12 11:30 6.28 1850 2400 (1971) 0 (1979) 117 0 0 1 2 14 85 105 207 698
2019-10-12 10:30 6.33 1920 2400 (1971) 0 (1979) 117 0 0 1 2 14 85 105 207 698
2019-10-12 09:30 6.40 2010 2400 (1971) 0 (1979) 117 0 0 1 2 14 85 105 207 698
2019-10-12 08:30 6.45 2080 2400 (1971) 0 (1979) 117 0 0 1 2 14 85 105 207 698
2019-10-12 07:30 6.51 2160 2400 (1971) 0 (1979) 117 0 0 1 2 14 85 105 207 698
2019-10-12 06:30 6.57 2240 2400 (1971) 0 (1979) 117 0 0 1 2 14 85 105 207 698
2019-10-12 05:30 6.64 2340 2400 (1971) 0 (1979) 117 0 0 1 2 14 85 105 207 698
2019-10-12 04:30 6.73 2470 2400 (1971) 0 (1979) 117 0 0 1 2 14 85 105 207 698
2019-10-12 03:30 6.81 2590 2400 (1971) 0 (1979) 117 0 0 1 2 14 85 105 207 698
2019-10-12 02:30 6.90 2730 2400 (1971) 0 (1979) 117 0 0 1 2 14 85 105 207 698
2019-10-12 01:30 7.01 2900 2400 (1971) 0 (1979) 117 0 0 1 2 14 85 105 207 698
2019-10-12 00:30 7.12 3050 2400 (1971) 0 (1979) 117 0 0 1 2 14 85 105 207 698
2019-10-11 23:30 7.33 3330 1680 (2010) 0 (1979) 106 0 0 1 2 15 81 130 300 533
2019-10-11 22:30 7.27 3250 1680 (2010) 0 (1979) 106 0 0 1 2 15 81 130 300 533
2019-10-11 21:30 7.29 3280 1680 (2010) 0 (1979) 106 0 0 1 2 15 81 130 300 533
2019-10-11 20:30 7.27 3250 1680 (2010) 0 (1979) 106 0 0 1 2 15 81 130 300 533
2019-10-11 19:30 7.25 3220 1680 (2010) 0 (1979) 106 0 0 1 2 15 81 130 300 533
2019-10-11 18:30 7.23 3200 1680 (2010) 0 (1979) 106 0 0 1 2 15 81 130 300 533
2019-10-11 17:30 7.24 3210 1680 (2010) 0 (1979) 106 0 0 1 2 15 81 130 300 533
2019-10-11 16:30 7.27 3250 1680 (2010) 0 (1979) 106 0 0 1 2 15 81 130 300 533
2019-10-11 15:30 7.33 3330 1680 (2010) 0 (1979) 106 0 0 1 2 15 81 130 300 533
2019-10-11 14:30 7.61 3740 1680 (2010) 0 (1979) 106 0 0 1 2 15 81 130 300 533
2019-10-11 13:30 7.67 3830 1680 (2010) 0 (1979) 106 0 0 1 2 15 81 130 300 533
2019-10-11 12:30 7.98 4310 1680 (2010) 0 (1979) 106 0 0 1 2 15 81 130 300 533
2019-10-11 11:30 8.32 4870 1680 (2010) 0 (1979) 106 0 0 1 2 15 81 130 300 533
2019-10-11 10:30 8.43 5060 1680 (2010) 0 (1979) 106 0 0 1 2 15 81 130 300 533
2019-10-11 09:30 5.95 1430 1680 (2010) 0 (1979) 106 0 0 1 2 15 81 130 300 533
2019-10-11 08:30 4.24 174 1680 (2010) 0 (1979) 106 0 0 1 2 15 81 130 300 533
2019-10-11 07:30 4.22 168 1680 (2010) 0 (1979) 106 0 0 1 2 15 81 130 300 533
2019-10-11 06:30 4.21 165 1680 (2010) 0 (1979) 106 0 0 1 2 15 81 130 300 533
2019-10-11 05:30 4.21 165 1680 (2010) 0 (1979) 106 0 0 1 2 15 81 130 300 533
2019-10-11 04:30 4.20 162 1680 (2010) 0 (1979) 106 0 0 1 2 15 81 130 300 533
2019-10-11 03:30 4.20 162 1680 (2010) 0 (1979) 106 0 0 1 2 15 81 130 300 533
2019-10-11 02:30 4.20 162 1680 (2010) 0 (1979) 106 0 0 1 2 15 81 130 300 533
2019-10-11 01:30 4.21 165 1680 (2010) 0 (1979) 106 0 0 1 2 15 81 130 300 533
2019-10-11 00:30 4.21 165 1680 (2010) 0 (1979) 106 0 0 1 2 15 81 130 300 533
2019-10-10 23:30 4.21 165 3750 (2010) 0 (1979) 193 0 0 1 2 11 85 127 430 1210
2019-10-10 22:30 4.22 168 3750 (2010) 0 (1979) 193 0 0 1 2 11 85 127 430 1210
2019-10-10 21:30 4.21 165 3750 (2010) 0 (1979) 193 0 0 1 2 11 85 127 430 1210
2019-10-10 20:30 4.22 168 3750 (2010) 0 (1979) 193 0 0 1 2 11 85 127 430 1210
2019-10-10 19:30 4.23 171 3750 (2010) 0 (1979) 193 0 0 1 2 11 85 127 430 1210
2019-10-10 18:30 4.23 171 3750 (2010) 0 (1979) 193 0 0 1 2 11 85 127 430 1210
2019-10-10 17:30 4.24 174 3750 (2010) 0 (1979) 193 0 0 1 2 11 85 127 430 1210
2019-10-10 16:30 4.25 177 3750 (2010) 0 (1979) 193 0 0 1 2 11 85 127 430 1210
2019-10-10 15:30 4.25 177 3750 (2010) 0 (1979) 193 0 0 1 2 11 85 127 430 1210
2019-10-10 14:30 4.26 180 3750 (2010) 0 (1979) 193 0 0 1 2 11 85 127 430 1210
2019-10-10 13:30 4.27 183 3750 (2010) 0 (1979) 193 0 0 1 2 11 85 127 430 1210
2019-10-10 12:30 4.28 186 3750 (2010) 0 (1979) 193 0 0 1 2 11 85 127 430 1210
2019-10-10 11:30 4.28 186 3750 (2010) 0 (1979) 193 0 0 1 2 11 85 127 430 1210
2019-10-10 10:30 4.28 186 3750 (2010) 0 (1979) 193 0 0 1 2 11 85 127 430 1210
2019-10-10 09:30 4.29 190 3750 (2010) 0 (1979) 193 0 0 1 2 11 85 127 430 1210
2019-10-10 08:30 4.30 193 3750 (2010) 0 (1979) 193 0 0 1 2 11 85 127 430 1210
2019-10-10 07:30 4.30 193 3750 (2010) 0 (1979) 193 0 0 1 2 11 85 127 430 1210
2019-10-10 06:30 4.31 196 3750 (2010) 0 (1979) 193 0 0 1 2 11 85 127 430 1210
2019-10-10 05:30 4.32 199 3750 (2010) 0 (1979) 193 0 0 1 2 11 85 127 430 1210
2019-10-10 04:30 4.32 199 3750 (2010) 0 (1979) 193 0 0 1 2 11 85 127 430 1210
2019-10-10 03:30 4.33 203 3750 (2010) 0 (1979) 193 0 0 1 2 11 85 127 430 1210
2019-10-10 02:30 4.34 206 3750 (2010) 0 (1979) 193 0 0 1 2 11 85 127 430 1210
2019-10-10 01:30 4.34 206 3750 (2010) 0 (1979) 193 0 0 1 2 11 85 127 430 1210
2019-10-10 00:30 4.35 209 3750 (2010) 0 (1979) 193 0 0 1 2 11 85 127 430 1210
2019-10-09 23:30 4.36 213 8580 (2010) 0 (1979) 382 0 0 1 2 10 79 132 740 1790
2019-10-09 22:30 4.36 213 8580 (2010) 0 (1979) 382 0 0 1 2 10 79 132 740 1790
2019-10-09 21:30 4.38 220 8580 (2010) 0 (1979) 382 0 0 1 2 10 79 132 740 1790
2019-10-09 20:30 4.39 223 8580 (2010) 0 (1979) 382 0 0 1 2 10 79 132 740 1790
2019-10-09 19:30 4.39 223 8580 (2010) 0 (1979) 382 0 0 1 2 10 79 132 740 1790
2019-10-09 18:30 4.40 227 8580 (2010) 0 (1979) 382 0 0 1 2 10 79 132 740 1790
2019-10-09 17:30 4.41 230 8580 (2010) 0 (1979) 382 0 0 1 2 10 79 132 740 1790
2019-10-09 16:30 4.42 234 8580 (2010) 0 (1979) 382 0 0 1 2 10 79 132 740 1790
2019-10-09 15:30 4.43 238 8580 (2010) 0 (1979) 382 0 0 1 2 10 79 132 740 1790
2019-10-09 14:30 4.44 242 8580 (2010) 0 (1979) 382 0 0 1 2 10 79 132 740 1790
2019-10-09 13:30 4.44 242 8580 (2010) 0 (1979) 382 0 0 1 2 10 79 132 740 1790
2019-10-09 12:30 4.46 249 8580 (2010) 0 (1979) 382 0 0 1 2 10 79 132 740 1790
2019-10-09 11:30 4.47 252 8580 (2010) 0 (1979) 382 0 0 1 2 10 79 132 740 1790
2019-10-09 10:30 4.47 252 8580 (2010) 0 (1979) 382 0 0 1 2 10 79 132 740 1790
2019-10-09 09:30 4.48 256 8580 (2010) 0 (1979) 382 0 0 1 2 10 79 132 740 1790
2019-10-09 08:30 4.49 260 8580 (2010) 0 (1979) 382 0 0 1 2 10 79 132 740 1790
2019-10-09 07:30 4.50 264 8580 (2010) 0 (1979) 382 0 0 1 2 10 79 132 740 1790
2019-10-09 06:30 4.51 267 8580 (2010) 0 (1979) 382 0 0 1 2 10 79 132 740 1790
2019-10-09 05:30 4.52 271 8580 (2010) 0 (1979) 382 0 0 1 2 10 79 132 740 1790
2019-10-09 04:30 4.53 275 8580 (2010) 0 (1979) 382 0 0 1 2 10 79 132 740 1790
2019-10-09 03:30 4.54 279 8580 (2010) 0 (1979) 382 0 0 1 2 10 79 132 740 1790
2019-10-09 02:30 4.55 283 8580 (2010) 0 (1979) 382 0 0 1 2 10 79 132 740 1790
2019-10-09 01:30 4.57 291 8580 (2010) 0 (1979) 382 0 0 1 2 10 79 132 740 1790
2019-10-09 00:30 4.57 291 8580 (2010) 0 (1979) 382 0 0 1 2 10 79 132 740 1790
2019-10-08 23:30 4.58 295 3840 (1991) 0 (1979) 181 0 0 1 2 10 73 91 365 1380
2019-10-08 22:30 4.60 303 3840 (1991) 0 (1979) 181 0 0 1 2 10 73 91 365 1380
2019-10-08 21:30 4.61 308 3840 (1991) 0 (1979) 181 0 0 1 2 10 73 91 365 1380
2019-10-08 20:30 4.62 312 3840 (1991) 0 (1979) 181 0 0 1 2 10 73 91 365 1380
2019-10-08 19:30 4.64 480 3840 (1991) 0 (1979) 181 0 0 1 2 10 73 91 365 1380
2019-10-08 18:30 4.65 486 3840 (1991) 0 (1979) 181 0 0 1 2 10 73 91 365 1380
2019-10-08 17:30 4.66 491 3840 (1991) 0 (1979) 181 0 0 1 2 10 73 91 365 1380
2019-10-08 16:30 4.68 503 3840 (1991) 0 (1979) 181 0 0 1 2 10 73 91 365 1380
2019-10-08 15:30 4.69 509 3840 (1991) 0 (1979) 181 0 0 1 2 10 73 91 365 1380
2019-10-08 14:30 4.71 521 3840 (1991) 0 (1979) 181 0 0 1 2 10 73 91 365 1380
2019-10-08 13:30 4.73 533 3840 (1991) 0 (1979) 181 0 0 1 2 10 73 91 365 1380
2019-10-08 12:30 4.75 545 3840 (1991) 0 (1979) 181 0 0 1 2 10 73 91 365 1380
2019-10-08 11:30 4.77 558 3840 (1991) 0 (1979) 181 0 0 1 2 10 73 91 365 1380
2019-10-08 10:30 4.78 564 3840 (1991) 0 (1979) 181 0 0 1 2 10 73 91 365 1380
2019-10-08 09:30 4.81 583 3840 (1991) 0 (1979) 181 0 0 1 2 10 73 91 365 1380
2019-10-08 08:30 4.83 597 3840 (1991) 0 (1979) 181 0 0 1 2 10 73 91 365 1380
2019-10-08 07:30 4.85 610 3840 (1991) 0 (1979) 181 0 0 1 2 10 73 91 365 1380
2019-10-08 06:30 4.87 623 3840 (1991) 0 (1979) 181 0 0 1 2 10 73 91 365 1380
2019-10-08 05:30 4.90 644 3840 (1991) 0 (1979) 181 0 0 1 2 10 73 91 365 1380
2019-10-08 04:30 4.92 658 3840 (1991) 0 (1979) 181 0 0 1 2 10 73 91 365 1380
2019-10-08 03:30 4.95 679 3840 (1991) 0 (1979) 181 0 0 1 2 10 73 91 365 1380
2019-10-08 02:30 4.98 701 3840 (1991) 0 (1979) 181 0 0 1 2 10 73 91 365 1380
2019-10-08 01:30 5.01 723 3840 (1991) 0 (1979) 181 0 0 1 2 10 73 91 365 1380
2019-10-08 00:30 5.04 746 3840 (1991) 0 (1979) 181 0 0 1 2 10 73 91 365 1380
2019-10-07 23:30 5.06 761 5790 (1985) 0 (1979) 290 0 0 2 2 9 73 93 315 3310
2019-10-07 22:30 5.09 784 5790 (1985) 0 (1979) 290 0 0 2 2 9 73 93 315 3310
2019-10-07 21:30 5.11 800 5790 (1985) 0 (1979) 290 0 0 2 2 9 73 93 315 3310
2019-10-07 20:30 5.14 824 5790 (1985) 0 (1979) 290 0 0 2 2 9 73 93 315 3310
2019-10-07 19:30 5.16 839 5790 (1985) 0 (1979) 290 0 0 2 2 9 73 93 315 3310
2019-10-07 18:30 5.19 863 5790 (1985) 0 (1979) 290 0 0 2 2 9 73 93 315 3310
2019-10-07 17:30 5.20 871 5790 (1985) 0 (1979) 290 0 0 2 2 9 73 93 315 3310
2019-10-07 16:30 5.17 847 5790 (1985) 0 (1979) 290 0 0 2 2 9 73 93 315 3310
2019-10-07 15:30 4.97 693 5790 (1985) 0 (1979) 290 0 0 2 2 9 73 93 315 3310
2019-10-07 14:30 4.22 273 5790 (1985) 0 (1979) 290 0 0 2 2 9 73 93 315 3310
2019-10-07 13:30 3.85 145 5790 (1985) 0 (1979) 290 0 0 2 2 9 73 93 315 3310
2019-10-07 12:30 3.83 140 5790 (1985) 0 (1979) 290 0 0 2 2 9 73 93 315 3310
2019-10-07 11:30 3.82 137 5790 (1985) 0 (1979) 290 0 0 2 2 9 73 93 315 3310
2019-10-07 10:30 3.82 137 5790 (1985) 0 (1979) 290 0 0 2 2 9 73 93 315 3310
2019-10-07 09:30 3.83 140 5790 (1985) 0 (1979) 290 0 0 2 2 9 73 93 315 3310
2019-10-07 08:30 3.83 140 5790 (1985) 0 (1979) 290 0 0 2 2 9 73 93 315 3310
2019-10-07 07:30 3.84 142 5790 (1985) 0 (1979) 290 0 0 2 2 9 73 93 315 3310
2019-10-07 06:30 3.85 145 5790 (1985) 0 (1979) 290 0 0 2 2 9 73 93 315 3310
2019-10-07 05:30 3.87 151 5790 (1985) 0 (1979) 290 0 0 2 2 9 73 93 315 3310
2019-10-07 04:30 3.88 154 5790 (1985) 0 (1979) 290 0 0 2 2 9 73 93 315 3310
2019-10-07 03:30 3.89 157 5790 (1985) 0 (1979) 290 0 0 2 2 9 73 93 315 3310
2019-10-07 02:30 3.91 162 5790 (1985) 0 (1979) 290 0 0 2 2 9 73 93 315 3310
2019-10-07 01:30 3.92 166 5790 (1985) 0 (1979) 290 0 0 2 2 9 73 93 315 3310
2019-10-07 00:30 3.94 172 5790 (1985) 0 (1979) 290 0 0 2 2 9 73 93 315 3310

A total of 171 rows are displayed for years 1962 through 2018.

Trips for Glover River (Oklahoma), Glover (07337900)

DateStartEndDistanceConditionDischargeHeightFishingDetails
Click for details2009-05-30 Road D185 Jones River Ranch Road Total trip distance: 4.8 miles4.8 Good 100 3.62 Fair GSF
LSF
SMB
GSF, LSF, SMB
Fillmore, Brian
Fillmore, Rebecca
Ligon, Day
Fillmore, Brian; Fillmore, Rebecca; Ligon, Day
No notes for this trip<i>No notes for this trip</i> USGS Gauge Data:
Glover (07337900)
Discharge: 100
Height: 3.62
<b>USGS Gauge Data:</b></br />Glover (07337900)<br />Discharge: 100<br />Height: 3.62
Source: FillmoreSource: Fillmore

A total of 1 rows are displayed.

Trip Summary for Glover River (Oklahoma), Glover (07337900)

Miles4.8
Trips1
People3
Dates1
Years1
Months1
Rows1
Sources1

Condition Descriptions

Fishing Conditions

Fish Species

Notes

Classic Trip List

The classic River Trips application is still available for use. It is updated with the new system using a data retrofit. It is no longer maintained. The original River Trips application is no longer updated (as of 1 Dec 2016) but can be checked for errors or for the condition of the data before it was converted to the new system.